Ambler, AK

3:33 AM AKDT on July 06, 2015 (GMT -0800)
Ambler | | Change Station
CLOSE
Current Station
Airport
Location: Ambler,
Elevation: 289 ft
Nearby Weather Stations
Active Advisory: Dense Smoke Advisory Active Notice: Record Report

Elev 289 ft 67.11 °N, 157.86 °W | Updated 17 minutes ago

Overcast
Overcast
63 °F
Feels Like 63 °F
N
6
Wind Variable Wind from NNE

Today
High -- | Low -- °F
--% Chance of Precip.
Yesterday
High -- | Low -- °F
Precip. -- in
3:08 AM 2:03 AM
Waning Gibbous, 76% visible
Pressure 30.06 in
Visibility 1.5 miles
Clouds Overcast 2100 ft
Dew Point 48 °F
Humidity 59%
Rainfall 0.00 in
Snow Depth Not available.
UV 0 out of 12
Pollen Not available.
Air Quality Not available.
Flu Activity Not available.
METAR PAFM 061116Z AUTO 03005KT 1 1/2SM OVC021 17/09 A3006 RMK AO1

More Conditions Fewer Conditions

Pressure 30.06 in
Visibility 1.5 miles
Clouds Overcast 2100 ft
Dew Point 48 °F
Humidity 59%
Rainfall 0.00 in
Snow Depth Not available.
UV 0 out of 12
Pollen Not available.
Air Quality Not available.
Flu Activity Not available.
METAR PAFM 061116Z AUTO 03005KT 1 1/2SM OVC021 17/09 A3006 RMK AO1

More Conditions Fewer Conditions

10-Day Weather Forecast

×

Almanac

Astronomy

Jul. 06, 2015 Rise Set
Actual Time
Civil Twilight
Nautical Twilight
Astronomical Twilight
Moon
Length of Visible Light
Length of Day
Tomorrow will be .
, % of the Moon is Illuminated

Today's Extremes

State Highs State Lows

Community

WunderPhotos

Upload Photos

1,835,538 photos uploaded!

WunderBlogs® & News

Nearby

Air Quality

  Air Quality AQ Index Pollutant
Not available.

Snow Depth

Station Depth Elevation

Earthquake Activity

City Distance Mag. Time & Date
Minimum magnitude displayed is 2.5.

Coastal Water Temperatures

Place Temperature

Stations

Nearby Weather Stations

Station Location Temp. Windchill Dew Point Humidity Wind Precip. Elev Updated Type
                   
Dense Smoke Advisory
Statement as of 2:44 AM AKDT on July 06, 2015

... Dense smoke advisory in effect until midnight akdt tonight...

The National Weather Service in Fairbanks has issued a dense
smoke advisory... which is in effect until midnight akdt tonight.

* Visibility... less than one half mile at times.

* Timing... conditions improving at times during the day with
significant improvement expected on Tuesday.

Precautionary/preparedness actions...

A dense smoke advisory means visibilities are limited to one mile
or less in wildfire smoke. If outdoors... prolonged physical
exertion should be reduced or stopped.